Time;durP1;ratioP1;P1;durP2;ratioP2;P2;SDS_P1;SDS_P2;PMS_P1;PMS_P2;Temp;Humidity;BMP_temperature;BMP_pressure;BME280_temperature;BME280_humidity;BME280_pressure;Samples;Min_cycle;Max_cycle;Signal;HPM_P1;HPM_P2
2022/08/24 00:02:02;;;;;;;1999.90;999.90;;;;;;;-144.65;100.00;64500.88;5039584;28;20018;-85
2022/08/24 00:04:28;;;;;;;1999.90;999.90;;;;;;;-144.65;100.00;64500.88;5039091;28;20082;-85
2022/08/24 00:06:54;;;;;;;1999.90;999.90;;;;;;;-144.65;100.00;64500.88;5037793;28;20034;-87
2022/08/24 00:09:21;;;;;;;1999.90;999.90;;;;;;;-144.65;100.00;64500.88;5038568;28;20001;-85
2022/08/24 00:11:46;;;;;;;1999.90;999.90;;;;;;;-144.65;100.00;64500.88;5039411;28;20018;-78
2022/08/24 00:14:13;;;;;;;1999.90;999.90;;;;;;;-144.65;100.00;64500.88;5038796;28;20040;-84
2022/08/24 00:16:40;;;;;;;1999.90;999.90;;;;;;;-144.65;100.00;64500.88;5039132;28;20010;-75
2022/08/24 00:19:06;;;;;;;1999.90;999.90;;;;;;;-144.65;100.00;64500.88;5039136;28;20011;-79
2022/08/24 00:21:32;;;;;;;1999.90;999.90;;;;;;;-144.65;100.00;64500.88;5039648;28;20006;-82
2022/08/24 00:23:57;;;;;;;1999.90;999.90;;;;;;;-144.65;100.00;64500.88;5036887;28;20030;-82
2022/08/24 00:26:23;;;;;;;1999.90;999.90;;;;;;;-144.65;100.00;64500.88;5039039;28;20021;-77
2022/08/24 00:28:48;;;;;;;1999.90;999.90;;;;;;;-144.65;100.00;64500.88;5039333;28;20069;-84
2022/08/24 00:31:14;;;;;;;1999.90;999.90;;;;;;;-144.65;100.00;64500.88;5039031;28;20026;-84
2022/08/24 00:33:39;;;;;;;1999.90;999.90;;;;;;;-144.65;100.00;64500.88;5037059;28;20089;-87
2022/08/24 00:36:05;;;;;;;1999.90;999.90;;;;;;;-144.65;100.00;64500.88;5036574;28;20038;-87
2022/08/24 00:38:34;;;;;;;1999.90;999.90;;;;;;;-144.65;100.00;64500.88;5037500;28;20022;-82
2022/08/24 00:41:00;;;;;;;1999.90;999.90;;;;;;;-144.65;100.00;64500.88;5036289;28;20050;-86
2022/08/24 00:43:25;;;;;;;1999.90;999.90;;;;;;;-144.65;100.00;64500.88;5036539;28;20014;-87
2022/08/24 00:46:18;;;;;;;1999.90;999.90;;;;;;;-144.65;100.00;64500.88;5037388;28;20022;-83
2022/08/24 00:48:48;;;;;;;1999.90;999.90;;;;;;;-144.65;100.00;64500.88;5038227;28;20027;-83
2022/08/24 00:51:19;;;;;;;1999.90;999.90;;;;;;;-144.65;100.00;64500.88;5038943;28;20028;-78
2022/08/24 00:53:49;;;;;;;1999.90;999.90;;;;;;;-144.65;100.00;64500.88;5038835;28;20082;-83
2022/08/24 00:56:21;;;;;;;1999.90;999.90;;;;;;;-144.65;100.00;64500.88;5038221;28;20014;-83
2022/08/24 00:59:00;;;;;;;1999.90;999.90;;;;;;;-144.65;100.00;64500.88;5037824;28;20024;-84
2022/08/24 01:01:27;;;;;;;1999.90;999.90;;;;;;;-144.65;100.00;64500.88;5037673;28;20049;-78
2022/08/24 01:03:55;;;;;;;1999.90;999.90;;;;;;;-144.65;100.00;64500.88;5037616;28;20029;-86
2022/08/24 01:06:21;;;;;;;1999.90;999.90;;;;;;;-144.65;100.00;64500.88;5020495;28;20056;-81
2022/08/24 01:08:46;;;;;;;1999.90;999.90;;;;;;;-144.65;100.00;64500.88;5036975;28;20014;-83
2022/08/24 01:11:16;;;;;;;1999.90;999.90;;;;;;;-144.65;100.00;64500.88;5036886;28;20032;-86
2022/08/24 01:13:44;;;;;;;1999.90;999.90;;;;;;;-144.65;100.00;64500.88;5036474;28;20030;-80
2022/08/24 01:16:11;;;;;;;1999.90;999.90;;;;;;;-144.65;100.00;64500.88;5037375;28;20044;-82
2022/08/24 01:18:50;;;;;;;1999.90;999.90;;;;;;;-144.65;100.00;64500.88;5019778;28;20481;-85
2022/08/24 01:21:33;;;;;;;1999.90;999.90;;;;;;;-144.65;100.00;64500.88;5037044;28;20030;-83
2022/08/24 01:24:02;;;;;;;1999.90;999.90;;;;;;;-144.65;100.00;64500.88;5036606;28;20041;-84
2022/08/24 01:26:32;;;;;;;1999.90;999.90;;;;;;;-144.65;100.00;64500.88;5036514;28;20074;-82
2022/08/24 01:29:09;;;;;;;1999.90;999.90;;;;;;;-144.65;100.00;64500.88;5035899;28;20010;-86
2022/08/24 01:31:35;;;;;;;1999.90;999.90;;;;;;;-144.65;100.00;64500.88;5036303;28;20013;-85
2022/08/24 01:34:02;;;;;;;1999.90;999.90;;;;;;;-144.65;100.00;64500.88;5036488;28;20041;-84
2022/08/24 01:36:54;;;;;;;1999.90;999.90;;;;;;;-144.65;100.00;64500.88;5036019;28;20043;-84
2022/08/24 01:39:25;;;;;;;1999.90;999.90;;;;;;;-144.65;100.00;64500.88;5035755;28;20022;-86
2022/08/24 01:41:51;;;;;;;1999.90;999.90;;;;;;;-144.65;100.00;64500.88;5036343;28;20041;-86
2022/08/24 01:44:19;;;;;;;1999.90;999.90;;;;;;;-144.65;100.00;64500.88;5019824;28;20010;-85
2022/08/24 01:46:47;;;;;;;1999.90;999.90;;;;;;;-144.65;100.00;64500.88;5036483;28;20005;-84
2022/08/24 01:49:14;;;;;;;1999.90;999.90;;;;;;;-144.65;100.00;64500.88;5019573;28;20021;-85
2022/08/24 01:51:39;;;;;;;1999.90;999.90;;;;;;;-144.65;100.00;64500.88;5037027;28;20010;-85
2022/08/24 01:54:06;;;;;;;1999.90;999.90;;;;;;;-144.65;100.00;64500.88;5034191;28;20060;-86
2022/08/24 01:56:32;;;;;;;1999.90;999.90;;;;;;;-144.65;100.00;64500.88;5036248;28;20078;-85
2022/08/24 01:58:58;;;;;;;1999.90;999.90;;;;;;;-144.65;100.00;64500.88;5036538;28;20049;-86
2022/08/24 02:01:26;;;;;;;1999.90;999.90;;;;;;;-144.65;100.00;64500.88;5036787;28;20041;-83
2022/08/24 02:03:51;;;;;;;1999.90;999.90;;;;;;;-144.65;100.00;64500.88;5036583;28;20022;-82
2022/08/24 02:06:17;;;;;;;1999.90;999.90;;;;;;;-144.65;100.00;64500.88;5038114;28;20016;-77
2022/08/24 02:08:42;;;;;;;1999.90;999.90;;;;;;;-144.65;100.00;64500.88;5037604;28;20021;-82
2022/08/24 02:11:08;;;;;;;1999.90;999.90;;;;;;;-144.65;100.00;64500.88;5036334;28;20030;-82
2022/08/24 02:13:36;;;;;;;1999.90;999.90;;;;;;;-144.65;100.00;64500.88;5035879;28;20010;-85
2022/08/24 02:16:01;;;;;;;1999.90;999.90;;;;;;;-144.65;100.00;64500.88;5035695;28;20022;-83
2022/08/24 02:18:27;;;;;;;1999.90;999.90;;;;;;;-144.65;100.00;64500.88;5035037;28;20013;-85
2022/08/24 02:20:52;;;;;;;1999.90;999.90;;;;;;;-144.65;100.00;64500.88;5032696;28;20018;-86
2022/08/24 02:23:19;;;;;;;1999.90;999.90;;;;;;;-144.65;100.00;64500.88;5031657;28;20052;-85
2022/08/24 02:25:45;;;;;;;1999.90;999.90;;;;;;;-144.65;100.00;64500.88;5031028;28;20029;-85
2022/08/24 02:28:11;;;;;;;1999.90;999.90;;;;;;;-144.65;100.00;64500.88;5030545;28;20026;-84
2022/08/24 02:30:36;;;;;;;1999.90;999.90;;;;;;;-144.65;100.00;64500.88;5033041;28;20083;-83
2022/08/24 02:33:02;;;;;;;1999.90;999.90;;;;;;;-144.65;100.00;64500.88;5036845;28;20068;-82
2022/08/24 02:35:28;;;;;;;1999.90;999.90;;;;;;;-144.65;100.00;64500.88;5036478;28;20030;-86
2022/08/24 02:37:54;;;;;;;1999.90;999.90;;;;;;;-144.65;100.00;64500.88;5036678;28;20029;-83
2022/08/24 02:40:20;;;;;;;1999.90;999.90;;;;;;;-144.65;100.00;64500.88;5037472;28;20050;-87
2022/08/24 02:42:46;;;;;;;1999.90;999.90;;;;;;;-144.65;100.00;64500.88;5040281;28;20022;-77
2022/08/24 02:45:13;;;;;;;1999.90;999.90;;;;;;;-144.65;100.00;64500.88;5040663;28;20064;-87
2022/08/24 02:47:38;;;;;;;1999.90;999.90;;;;;;;-144.65;100.00;64500.88;5040029;28;20049;-87
2022/08/24 02:50:06;;;;;;;1999.90;999.90;;;;;;;-144.65;100.00;64500.88;5039706;28;20010;-86
2022/08/24 02:52:31;;;;;;;1999.90;999.90;;;;;;;-144.65;100.00;64500.88;5040135;28;20009;-86
2022/08/24 02:54:56;;;;;;;1999.90;999.90;;;;;;;-144.65;100.00;64500.88;5039898;28;20089;-87
2022/08/24 02:57:22;;;;;;;1999.90;999.90;;;;;;;-144.65;100.00;64500.88;5040296;28;20006;-85
2022/08/24 02:59:47;;;;;;;1999.90;999.90;;;;;;;-144.65;100.00;64500.88;5040337;28;20014;-84
2022/08/24 03:02:13;;;;;;;1999.90;999.90;;;;;;;-144.65;100.00;64500.88;5040347;28;20021;-86
2022/08/24 03:04:38;;;;;;;1999.90;999.90;;;;;;;-144.65;100.00;64500.88;5040569;28;20122;-84
2022/08/24 03:07:04;;;;;;;1999.90;999.90;;;;;;;-144.65;100.00;64500.88;5040393;28;20026;-80
2022/08/24 03:09:29;;;;;;;1999.90;999.90;;;;;;;-144.65;100.00;64500.88;5040985;28;20018;-81
2022/08/24 03:11:55;;;;;;;1999.90;999.90;;;;;;;-144.65;100.00;64500.88;5040890;28;20101;-77
2022/08/24 03:14:20;;;;;;;1999.90;999.90;;;;;;;-144.65;100.00;64500.88;5040901;28;20010;-83
2022/08/24 03:16:46;;;;;;;1999.90;999.90;;;;;;;-144.65;100.00;64500.88;5039976;28;20085;-86
2022/08/24 03:19:12;;;;;;;1999.90;999.90;;;;;;;-144.65;100.00;64500.88;5039814;28;20041;-82
2022/08/24 03:21:37;;;;;;;1999.90;999.90;;;;;;;-144.65;100.00;64500.88;5040707;28;20037;-80
2022/08/24 03:24:03;;;;;;;1999.90;999.90;;;;;;;-144.65;100.00;64500.88;5040615;28;20017;-78
2022/08/24 03:26:28;;;;;;;1999.90;999.90;;;;;;;-144.65;100.00;64500.88;5040347;28;20048;-84
2022/08/24 03:28:54;;;;;;;1999.90;999.90;;;;;;;-144.65;100.00;64500.88;5039749;28;20014;-80
2022/08/24 03:31:19;;;;;;;1999.90;999.90;;;;;;;-144.65;100.00;64500.88;5022341;28;20037;-86
2022/08/24 03:33:45;;;;;;;1999.90;999.90;;;;;;;-144.65;100.00;64500.88;5037898;28;20070;-85
2022/08/24 03:36:10;;;;;;;1999.90;999.90;;;;;;;-144.65;100.00;64500.88;5039949;28;20414;-84
2022/08/24 03:38:36;;;;;;;1999.90;999.90;;;;;;;-144.65;100.00;64500.88;5040386;28;20032;-78
2022/08/24 03:41:01;;;;;;;1999.90;999.90;;;;;;;-144.65;100.00;64500.88;5040234;28;20060;-75
2022/08/24 03:46:12;;;;;;;1999.90;999.90;;;;;;;-144.65;100.00;64500.88;5040081;28;20029;-85
2022/08/24 03:48:39;;;;;;;1999.90;999.90;;;;;;;-144.65;100.00;64500.88;5039508;28;20034;-81
2022/08/24 03:51:06;;;;;;;1999.90;999.90;;;;;;;-144.65;100.00;64500.88;5040071;28;20097;-83
2022/08/24 03:53:31;;;;;;;1999.90;999.90;;;;;;;-144.65;100.00;64500.88;5038859;28;20093;-81
2022/08/24 03:55:57;;;;;;;1999.90;999.90;;;;;;;-144.65;100.00;64500.88;5037366;28;20026;-81
2022/08/24 03:58:22;;;;;;;1999.90;999.90;;;;;;;-144.65;100.00;64500.88;5038325;28;20024;-85
2022/08/24 04:00:48;;;;;;;1999.90;999.90;;;;;;;-144.65;100.00;64500.88;5038834;28;20026;-86
2022/08/24 04:03:14;;;;;;;1999.90;999.90;;;;;;;-144.65;100.00;64500.88;5038422;28;20054;-87
2022/08/24 04:05:41;;;;;;;1999.90;999.90;;;;;;;-144.65;100.00;64500.88;5039109;28;20021;-85
2022/08/24 04:08:09;;;;;;;1999.90;999.90;;;;;;;-144.65;100.00;64500.88;5038996;28;20017;-85
2022/08/24 04:10:35;;;;;;;1999.90;999.90;;;;;;;-144.65;100.00;64500.88;5038531;28;20026;-86
2022/08/24 04:13:00;;;;;;;1999.90;999.90;;;;;;;-144.65;100.00;64500.88;5038581;28;20014;-84
2022/08/24 04:15:26;;;;;;;1999.90;999.90;;;;;;;-144.65;100.00;64500.88;5021540;28;20026;-85
2022/08/24 04:17:52;;;;;;;1999.90;999.90;;;;;;;-144.65;100.00;64500.88;5036564;28;20022;-85
2022/08/24 04:20:18;;;;;;;1999.90;999.90;;;;;;;-144.65;100.00;64500.88;5036628;28;20041;-81
2022/08/24 04:22:43;;;;;;;1999.90;999.90;;;;;;;-144.65;100.00;64500.88;5035088;28;20026;-85
2022/08/24 04:25:10;;;;;;;1999.90;999.90;;;;;;;-144.65;100.00;64500.88;5034318;28;20018;-86
2022/08/24 04:27:37;;;;;;;1999.90;999.90;;;;;;;-144.65;100.00;64500.88;5034560;28;20029;-86
2022/08/24 04:30:03;;;;;;;1999.90;999.90;;;;;;;-144.65;100.00;64500.88;5019542;28;20037;-83
2022/08/24 04:32:30;;;;;;;1999.90;999.90;;;;;;;-144.65;100.00;64500.88;5039056;28;20026;-81
2022/08/24 04:34:57;;;;;;;1999.90;999.90;;;;;;;-144.65;100.00;64500.88;5020993;28;20124;-73
2022/08/24 04:37:24;;;;;;;1999.90;999.90;;;;;;;-144.65;100.00;64500.88;5012197;28;20025;-73
2022/08/24 04:39:49;;;;;;;1999.90;999.90;;;;;;;-144.65;100.00;64500.88;5007528;28;20052;-71
2022/08/24 04:42:14;;;;;;;1999.90;999.90;;;;;;;-144.65;100.00;64500.88;5011193;28;20072;-73
2022/08/24 04:44:40;;;;;;;1999.90;999.90;;;;;;;-144.65;100.00;64500.88;5012702;28;20021;-73
2022/08/24 04:47:06;;;;;;;1999.90;999.90;;;;;;;-144.65;100.00;64500.88;5012522;28;20030;-75
2022/08/24 04:49:32;;;;;;;1999.90;999.90;;;;;;;-144.65;100.00;64500.88;5011730;28;20390;-75
2022/08/24 04:51:57;;;;;;;1999.90;999.90;;;;;;;-144.65;100.00;64500.88;4992267;28;20088;-72
2022/08/24 04:54:24;;;;;;;1999.90;999.90;;;;;;;-144.65;100.00;64500.88;5015456;28;20022;-76
2022/08/24 04:56:49;;;;;;;1999.90;999.90;;;;;;;-144.65;100.00;64500.88;5015004;28;20030;-72
2022/08/24 04:59:14;;;;;;;1999.90;999.90;;;;;;;-144.65;100.00;64500.88;5011461;28;20549;-74
2022/08/24 05:01:41;;;;;;;1999.90;999.90;;;;;;;-144.65;100.00;64500.88;5013429;28;20489;-77
2022/08/24 05:04:06;;;;;;;1999.90;999.90;;;;;;;-144.65;100.00;64500.88;5013113;28;20038;-75
2022/08/24 05:06:32;;;;;;;1999.90;999.90;;;;;;;-144.65;100.00;64500.88;5012973;28;20088;-75
2022/08/24 05:08:59;;;;;;;1999.90;999.90;;;;;;;-144.65;100.00;64500.88;5016090;28;20033;-76
2022/08/24 05:11:25;;;;;;;1999.90;999.90;;;;;;;-144.65;100.00;64500.88;5023331;28;20022;-78
2022/08/24 05:13:55;;;;;;;1999.90;999.90;;;;;;;-144.65;100.00;64500.88;5020024;28;20117;-73
2022/08/24 05:16:22;;;;;;;1999.90;999.90;;;;;;;-144.65;100.00;64500.88;5010018;28;20160;-73
2022/08/24 05:18:48;;;;;;;1999.90;999.90;;;;;;;-144.65;100.00;64500.88;5016352;28;20030;-76
2022/08/24 05:21:19;;;;;;;1999.90;999.90;;;;;;;-144.65;100.00;64500.88;5002888;28;20030;-77
2022/08/24 05:23:44;;;;;;;1999.90;999.90;;;;;;;-144.65;100.00;64500.88;5032533;28;20053;-76
2022/08/24 05:26:13;;;;;;;1999.90;999.90;;;;;;;-144.65;100.00;64500.88;5016420;28;20547;-73
2022/08/24 05:28:39;;;;;;;1999.90;999.90;;;;;;;-144.65;100.00;64500.88;4992465;28;20038;-73
2022/08/24 05:31:10;;;;;;;1999.90;999.90;;;;;;;-144.65;100.00;64500.88;5012798;28;20041;-73
2022/08/24 05:33:35;;;;;;;1999.90;999.90;;;;;;;-144.65;100.00;64500.88;5012400;28;20034;-76
2022/08/24 05:36:02;;;;;;;1999.90;999.90;;;;;;;-144.65;100.00;64500.88;5011726;28;20474;-73
2022/08/24 05:38:27;;;;;;;1999.90;999.90;;;;;;;-144.65;100.00;64500.88;5003547;28;20021;-77
2022/08/24 05:40:54;;;;;;;1999.90;999.90;;;;;;;-144.65;100.00;64500.88;5014603;28;20038;-73
2022/08/24 05:43:19;;;;;;;1999.90;999.90;;;;;;;-144.65;100.00;64500.88;4995178;28;20095;-75
2022/08/24 05:45:45;;;;;;;1999.90;999.90;;;;;;;-144.65;100.00;64500.88;5015500;28;20026;-78
2022/08/24 05:48:10;;;;;;;1999.90;999.90;;;;;;;-144.65;100.00;64500.88;5019827;28;20102;-77
2022/08/24 05:50:36;;;;;;;1999.90;999.90;;;;;;;-144.65;100.00;64500.88;5018586;28;20474;-75
2022/08/24 05:53:03;;;;;;;1999.90;999.90;;;;;;;-144.65;100.00;64500.88;5018616;28;20089;-80
2022/08/24 05:55:29;;;;;;;1999.90;999.90;;;;;;;-144.65;100.00;64500.88;5022893;28;20367;-79
2022/08/24 05:57:55;;;;;;;1999.90;999.90;;;;;;;-144.65;100.00;64500.88;5012874;28;20021;-73
2022/08/24 06:00:22;;;;;;;1999.90;999.90;;;;;;;-144.65;100.00;64500.88;5018225;28;20045;-74
2022/08/24 06:02:48;;;;;;;1999.90;999.90;;;;;;;-144.65;100.00;64500.88;5018343;28;20120;-78
2022/08/24 06:05:13;;;;;;;1999.90;999.90;;;;;;;-144.65;100.00;64500.88;5020119;28;20057;-79
2022/08/24 06:07:39;;;;;;;1999.90;999.90;;;;;;;-144.65;100.00;64500.88;5017999;28;20478;-77
2022/08/24 06:10:05;;;;;;;1999.90;999.90;;;;;;;-144.65;100.00;64500.88;5019378;28;20592;-74
2022/08/24 06:12:30;;;;;;;1999.90;999.90;;;;;;;-144.65;100.00;64500.88;5010195;28;20041;-73
2022/08/24 06:14:55;;;;;;;1999.90;999.90;;;;;;;-144.65;100.00;64500.88;5010615;28;20500;-72
2022/08/24 06:17:21;;;;;;;1999.90;999.90;;;;;;;-144.65;100.00;64500.88;5014434;28;20037;-71
2022/08/24 06:19:46;;;;;;;1999.90;999.90;;;;;;;-144.65;100.00;64500.88;5014308;28;20026;-71
2022/08/24 06:22:13;;;;;;;1999.90;999.90;;;;;;;-144.65;100.00;64500.88;5015230;28;20026;-74
2022/08/24 06:27:22;;;;;;;1999.90;999.90;;;;;;;-144.65;100.00;64500.88;5014498;28;20037;-74
2022/08/24 06:29:52;;;;;;;1999.90;999.90;;;;;;;-144.65;100.00;64500.88;5014322;28;20022;-72
2022/08/24 06:32:18;;;;;;;1999.90;999.90;;;;;;;-144.65;100.00;64500.88;5014022;28;20022;-74
2022/08/24 06:34:43;;;;;;;1999.90;999.90;;;;;;;-144.65;100.00;64500.88;5014184;28;20033;-74
2022/08/24 06:37:08;;;;;;;1999.90;999.90;;;;;;;-144.65;100.00;64500.88;4997205;28;20497;-74
2022/08/24 06:39:34;;;;;;;1999.90;999.90;;;;;;;-144.65;100.00;64500.88;5013311;28;20037;-73
2022/08/24 06:41:59;;;;;;;1999.90;999.90;;;;;;;-144.65;100.00;64500.88;5014003;28;20042;-73
2022/08/24 06:44:24;;;;;;;1999.90;999.90;;;;;;;-144.65;100.00;64500.88;5017871;28;20038;-73
2022/08/24 06:46:51;;;;;;;1999.90;999.90;;;;;;;-144.65;100.00;64500.88;5017396;28;20032;-73
2022/08/24 06:49:17;;;;;;;1999.90;999.90;;;;;;;-144.65;100.00;64500.88;5014113;28;20463;-73
2022/08/24 06:51:43;;;;;;;1999.90;999.90;;;;;;;-144.65;100.00;64500.88;5015060;28;20058;-73
2022/08/24 06:54:08;;;;;;;1999.90;999.90;;;;;;;-144.65;100.00;64500.88;5014232;28;20113;-73
2022/08/24 06:56:36;;;;;;;1999.90;999.90;;;;;;;-144.65;100.00;64500.88;4996333;28;20104;-73
2022/08/24 06:59:03;;;;;;;1999.90;999.90;;;;;;;-144.65;100.00;64500.88;5013900;28;20014;-73
2022/08/24 07:01:28;;;;;;;1999.90;999.90;;;;;;;-144.65;100.00;64500.88;5014595;28;20040;-74
2022/08/24 07:03:55;;;;;;;1999.90;999.90;;;;;;;-144.65;100.00;64500.88;5014420;28;20026;-74
2022/08/24 07:06:22;;;;;;;1999.90;999.90;;;;;;;-144.65;100.00;64500.88;4997935;28;20109;-73
2022/08/24 07:08:48;;;;;;;1999.90;999.90;;;;;;;-144.65;100.00;64500.88;5014085;28;20025;-73
2022/08/24 07:11:16;;;;;;;1999.90;999.90;;;;;;;-144.65;100.00;64500.88;5013479;28;20022;-73
2022/08/24 07:13:43;;;;;;;1999.90;999.90;;;;;;;-144.65;100.00;64500.88;5013835;28;20034;-73
2022/08/24 07:16:09;;;;;;;1999.90;999.90;;;;;;;-144.65;100.00;64500.88;5015130;28;20029;-73
2022/08/24 07:18:35;;;;;;;1999.90;999.90;;;;;;;-144.65;100.00;64500.88;5013827;28;20030;-73
2022/08/24 07:21:01;;;;;;;1999.90;999.90;;;;;;;-144.65;100.00;64500.88;5014074;28;20048;-73
2022/08/24 07:23:28;;;;;;;1999.90;999.90;;;;;;;-144.65;100.00;64500.88;5013909;28;20076;-73
2022/08/24 07:25:53;;;;;;;1999.90;999.90;;;;;;;-144.65;100.00;64500.88;4996059;28;20026;-73
2022/08/24 07:28:18;;;;;;;1999.90;999.90;;;;;;;-144.65;100.00;64500.88;5012190;28;20032;-73
2022/08/24 07:30:44;;;;;;;1999.90;999.90;;;;;;;-144.65;100.00;64500.88;5013478;28;20037;-73
2022/08/24 07:33:10;;;;;;;1999.90;999.90;;;;;;;-144.65;100.00;64500.88;5014481;28;20450;-73
2022/08/24 07:35:36;;;;;;;1999.90;999.90;;;;;;;-144.65;100.00;64500.88;5013626;28;20030;-72
2022/08/24 07:38:03;;;;;;;1999.90;999.90;;;;;;;-144.65;100.00;64500.88;5013943;28;20455;-73
2022/08/24 07:40:29;;;;;;;1999.90;999.90;;;;;;;-144.65;100.00;64500.88;5013388;28;20038;-74
2022/08/24 07:42:56;;;;;;;1999.90;999.90;;;;;;;-144.65;100.00;64500.88;5013398;28;20040;-73
2022/08/24 07:45:22;;;;;;;1999.90;999.90;;;;;;;-144.65;100.00;64500.88;5013307;28;20022;-73
2022/08/24 07:47:48;;;;;;;1999.90;999.90;;;;;;;-144.65;100.00;64500.88;4995587;28;20026;-73
2022/08/24 07:50:16;;;;;;;1999.90;999.90;;;;;;;-144.65;100.00;64500.88;5013463;28;20470;-72
2022/08/24 07:52:41;;;;;;;1999.90;999.90;;;;;;;-144.65;100.00;64500.88;5013683;28;20026;-72
2022/08/24 07:55:08;;;;;;;1999.90;999.90;;;;;;;-144.65;100.00;64500.88;5013082;28;20044;-73
2022/08/24 07:57:34;;;;;;;1999.90;999.90;;;;;;;-144.65;100.00;64500.88;5013380;28;20037;-74
2022/08/24 08:00:01;;;;;;;1999.90;999.90;;;;;;;-144.65;100.00;64500.88;5013138;28;20028;-74
2022/08/24 08:02:27;;;;;;;1999.90;999.90;;;;;;;-144.65;100.00;64500.88;5012928;28;20044;-73
2022/08/24 08:04:55;;;;;;;1999.90;999.90;;;;;;;-144.65;100.00;64500.88;5013020;28;20030;-71
2022/08/24 08:07:21;;;;;;;1999.90;999.90;;;;;;;-144.65;100.00;64500.88;5013155;28;20080;-72
2022/08/24 08:09:48;;;;;;;1999.90;999.90;;;;;;;-144.65;100.00;64500.88;5013037;28;20429;-71
2022/08/24 08:12:14;;;;;;;1999.90;999.90;;;;;;;-144.65;100.00;64500.88;5014621;28;20053;-71
2022/08/24 08:14:39;;;;;;;1999.90;999.90;;;;;;;-144.65;100.00;64500.88;5013527;28;20109;-71
2022/08/24 08:17:06;;;;;;;1999.90;999.90;;;;;;;-144.65;100.00;64500.88;5013485;28;20029;-73
2022/08/24 08:19:32;;;;;;;1999.90;999.90;;;;;;;-144.65;100.00;64500.88;5016935;28;20032;-74
2022/08/24 08:24:42;;;;;;;1999.90;999.90;;;;;;;-144.65;100.00;64500.88;5012826;28;20516;-73
2022/08/24 08:27:09;;;;;;;1999.90;999.90;;;;;;;-144.65;100.00;64500.88;5012605;28;20026;-73
2022/08/24 08:29:35;;;;;;;1999.90;999.90;;;;;;;-144.65;100.00;64500.88;4994738;28;20018;-75
2022/08/24 08:32:01;;;;;;;1999.90;999.90;;;;;;;-144.65;100.00;64500.88;5012464;28;20026;-73
2022/08/24 08:34:27;;;;;;;1999.90;999.90;;;;;;;-144.65;100.00;64500.88;5012327;28;20034;-72
2022/08/24 08:36:53;;;;;;;1999.90;999.90;;;;;;;-144.65;100.00;64500.88;5012363;28;20032;-74
2022/08/24 08:39:20;;;;;;;1999.90;999.90;;;;;;;-144.65;100.00;64500.88;5010231;28;20030;-71
2022/08/24 08:41:47;;;;;;;1999.90;999.90;;;;;;;-144.65;100.00;64500.88;4982992;28;20070;-71
2022/08/24 08:44:54;;;;;;;1999.90;999.90;;;;;;;-144.65;100.00;64500.88;4960458;28;20118;-72
2022/08/24 08:47:44;;;;;;;1999.90;999.90;;;;;;;-144.65;100.00;64500.88;4947606;28;20035;-71
2022/08/24 08:50:17;;;;;;;1999.90;999.90;;;;;;;-144.65;100.00;64500.88;4961598;28;20039;-73
2022/08/24 08:53:18;;;;;;;1999.90;999.90;;;;;;;-144.65;100.00;64500.88;4961281;28;20390;-72
2022/08/24 08:56:08;;;;;;;1999.90;999.90;;;;;;;-144.65;100.00;64500.88;4962759;28;20034;-72
2022/08/24 08:58:49;;;;;;;1999.90;999.90;;;;;;;-144.65;100.00;64500.88;4984763;28;20031;-72
2022/08/24 09:01:46;;;;;;;1999.90;999.90;;;;;;;-144.65;100.00;64500.88;4961901;28;20029;-71
2022/08/24 09:04:14;;;;;;;1999.90;999.90;;;;;;;-144.65;100.00;64500.88;4940620;28;20050;-74
2022/08/24 09:06:39;;;;;;;1999.90;999.90;;;;;;;-144.65;100.00;64500.88;4967751;28;21496;-74
2022/08/24 09:09:23;;;;;;;1999.90;999.90;;;;;;;-144.65;100.00;64500.88;4965124;28;20034;-74
2022/08/24 09:11:57;;;;;;;1999.90;999.90;;;;;;;-144.65;100.00;64500.88;4961782;28;20269;-77
2022/08/24 09:15:00;;;;;;;1999.90;999.90;;;;;;;-144.65;100.00;64500.88;4967500;28;20058;-74
2022/08/24 09:17:44;;;;;;;1999.90;999.90;;;;;;;-144.65;100.00;64500.88;4965523;28;20037;-73
2022/08/24 09:20:25;;;;;;;1999.90;999.90;;;;;;;-144.65;100.00;64500.88;4960093;28;20031;-74
2022/08/24 09:23:12;;;;;;;1999.90;999.90;;;;;;;-144.65;100.00;64500.88;4962971;28;20032;-75
2022/08/24 09:25:58;;;;;;;1999.90;999.90;;;;;;;-144.65;100.00;64500.88;4959700;28;20035;-74
2022/08/24 09:28:52;;;;;;;1999.90;999.90;;;;;;;-144.65;100.00;64500.88;4961442;28;20105;-74
2022/08/24 09:31:39;;;;;;;1999.90;999.90;;;;;;;-144.65;100.00;64500.88;4955413;28;20489;-75
2022/08/24 09:34:07;;;;;;;1999.90;999.90;;;;;;;-144.65;100.00;64500.88;4950988;28;20062;-74
2022/08/24 09:36:50;;;;;;;1999.90;999.90;;;;;;;-144.65;100.00;64500.88;4968518;28;20481;-75
2022/08/24 09:39:52;;;;;;;1999.90;999.90;;;;;;;-144.65;100.00;64500.88;4971636;28;20495;-75
2022/08/24 09:42:39;;;;;;;1999.90;999.90;;;;;;;-144.65;100.00;64500.88;4971115;28;20114;-74
2022/08/24 09:45:21;;;;;;;1999.90;999.90;;;;;;;-144.65;100.00;64500.88;4971247;28;20038;-74
2022/08/24 09:47:52;;;;;;;1999.90;999.90;;;;;;;-144.65;100.00;64500.88;4970501;28;20549;-74
2022/08/24 09:50:36;;;;;;;1999.90;999.90;;;;;;;-144.65;100.00;64500.88;4970560;28;20443;-74
2022/08/24 09:53:04;;;;;;;1999.90;999.90;;;;;;;-144.65;100.00;64500.88;4971450;28;20031;-75
2022/08/24 09:55:32;;;;;;;1999.90;999.90;;;;;;;-144.65;100.00;64500.88;4971247;28;20027;-74
2022/08/24 09:58:24;;;;;;;1999.90;999.90;;;;;;;-144.65;100.00;64500.88;4971341;28;20033;-74
2022/08/24 10:01:01;;;;;;;1999.90;999.90;;;;;;;-144.65;100.00;64500.88;4971288;28;20053;-74
2022/08/24 10:04:04;;;;;;;1999.90;999.90;;;;;;;-144.65;100.00;64500.88;4969487;28;20031;-74
2022/08/24 10:06:35;;;;;;;1999.90;999.90;;;;;;;-144.65;100.00;64500.88;4970884;28;20059;-73
2022/08/24 10:09:13;;;;;;;1999.90;999.90;;;;;;;-144.65;100.00;64500.88;4969525;28;20022;-75
2022/08/24 10:12:00;;;;;;;1999.90;999.90;;;;;;;-144.65;100.00;64500.88;4970672;28;20050;-74
2022/08/24 10:14:52;;;;;;;1999.90;999.90;;;;;;;-144.65;100.00;64500.88;4971060;28;20038;-74
2022/08/24 10:17:30;;;;;;;1999.90;999.90;;;;;;;-144.65;100.00;64500.88;4971023;28;20062;-74
2022/08/24 10:20:02;;;;;;;1999.90;999.90;;;;;;;-144.65;100.00;64500.88;4969295;28;20027;-75
2022/08/24 10:23:18;;;;;;;1999.90;999.90;;;;;;;-144.65;100.00;64500.88;4961414;28;20063;-73
2022/08/24 10:25:43;;;;;;;1999.90;999.90;;;;;;;-144.65;100.00;64500.88;4961195;28;20045;-74
2022/08/24 10:28:47;;;;;;;1999.90;999.90;;;;;;;-144.65;100.00;64500.88;4960426;28;20035;-74
2022/08/24 10:31:35;;;;;;;1999.90;999.90;;;;;;;-144.65;100.00;64500.88;4948021;28;20296;-75
2022/08/24 10:34:34;;;;;;;1999.90;999.90;;;;;;;-144.65;100.00;64500.88;4954797;28;20035;-72
2022/08/24 10:37:33;;;;;;;1999.90;999.90;;;;;;;-144.65;100.00;64500.88;4964612;28;20078;-74
2022/08/24 10:40:18;;;;;;;1999.90;999.90;;;;;;;-144.65;100.00;64500.88;4963852;28;20028;-72
2022/08/24 10:45:48;;;;;;;1999.90;999.90;;;;;;;-144.65;100.00;64500.88;5007801;28;19967;-73
2022/08/24 10:48:29;;;;;;;1999.90;999.90;;;;;;;-144.65;100.00;64500.88;5005399;28;20030;-83
2022/08/24 10:51:09;;;;;;;1999.90;999.90;;;;;;;-144.65;100.00;64500.88;4987873;28;20034;-82
2022/08/24 10:53:35;;;;;;;1999.90;999.90;;;;;;;-144.65;100.00;64500.88;4989851;28;20034;-84
2022/08/24 10:56:10;;;;;;;1999.90;999.90;;;;;;;-144.65;100.00;64500.88;4991406;28;20061;-86